Main page
METAR-TAF:

METAR-TAF

Airports :

Federico Fellini International Airport

Rimini, Italy

latitude: 44-02N, longitude: 012-37E, elevation: 12 m

Current weather observation

The report was made 41 minutes ago, at 17:20 UTC
Wind 4 kt from the West
Temperature 6°C
Humidity 93%
Pressure 1023 hPa
Visibility: 2000 m
Few clouds at a height of 700 ft
Broken clouds at a height of 1500 ft
mist

METAR: LIPR 251720Z 26004KT 2000 BR FEW007 BKN015 06/05 Q1023

Time: 19:01 (18:01 UTC)

Forecast

The report was made 1 hour and 1 minutes ago, at 17:00 UTC
Forecast valid from 25 at 18 UTC to 26 at 03 UTC
Wind 6 kt from the West
Visibility: 0800 m
Broken clouds at a height of 500 ft
fog

TAF: LIPR 251700Z 2518/2603 28006KT 0800 FG BKN005

Weather observations and forecasts of more than 4000 airports (METAR and TAF reports).

The available stations are represented by yellow and red dots on the map.

Hover mouse over dot to see the name of the station.

Then click to see weather observations and forecasts.

To change the map : click on the green buttons with a black cross to zoom in, on the green button with a dash to zoom out, or on the green arrows for adjacent maps.


METAR-TAF: